Time;durP1;ratioP1;P1;durP2;ratioP2;P2;SDS_P1;SDS_P2;PMS_P1;PMS_P2;Temp;Humidity;BMP_temperature;BMP_pressure;BME280_temperature;BME280_humidity;BME280_pressure;Samples;Min_cycle;Max_cycle;Signal;HPM_P1;HPM_P2
2023/05/24 00:02:22;;;;;;;5.22;4.20;;;15.20;99.90;;;;;;5039230;28;20028;-71
2023/05/24 00:04:48;;;;;;;6.03;4.68;;;15.10;99.90;;;;;;5039013;28;20022;-72
2023/05/24 00:07:15;;;;;;;5.93;4.20;;;15.10;99.90;;;;;;5037814;28;20025;-71
2023/05/24 00:09:41;;;;;;;6.38;4.28;;;15.00;99.90;;;;;;5027175;28;20076;-71
2023/05/24 00:12:07;;;;;;;7.00;4.43;;;15.00;99.90;;;;;;5038511;28;20034;-71
2023/05/24 00:14:33;;;;;;;6.40;4.10;;;15.00;99.90;;;;;;5037638;28;20032;-72
2023/05/24 00:16:58;;;;;;;6.97;4.07;;;14.90;99.90;;;;;;5038637;28;20549;-72
2023/05/24 00:19:24;;;;;;;5.53;4.32;;;14.90;99.90;;;;;;5037413;28;20049;-72
2023/05/24 00:21:50;;;;;;;7.25;4.22;;;14.90;99.90;;;;;;5038656;28;20489;-72
2023/05/24 00:24:16;;;;;;;5.32;4.43;;;14.80;99.90;;;;;;5038991;28;20049;-72
2023/05/24 00:26:42;;;;;;;5.43;4.30;;;14.80;99.90;;;;;;5038335;28;20022;-72
2023/05/24 00:29:08;;;;;;;6.00;4.45;;;14.70;99.90;;;;;;5038736;28;20041;-72
2023/05/24 00:31:34;;;;;;;6.30;4.63;;;14.70;99.90;;;;;;5036641;28;20076;-72
2023/05/24 00:33:59;;;;;;;7.55;3.85;;;14.70;99.90;;;;;;5037027;28;20104;-72
2023/05/24 00:36:25;;;;;;;5.53;4.78;;;14.70;99.90;;;;;;5038407;28;20041;-72
2023/05/24 00:38:51;;;;;;;5.63;4.55;;;14.60;99.90;;;;;;5038678;28;20026;-72
2023/05/24 00:41:17;;;;;;;5.72;4.32;;;14.60;99.90;;;;;;5038289;28;20017;-72
2023/05/24 00:43:43;;;;;;;5.60;4.63;;;14.60;99.90;;;;;;5038080;28;20048;-72
2023/05/24 00:46:17;;;;;;;7.55;4.70;;;14.60;99.90;;;;;;5036924;28;20033;-72
2023/05/24 00:48:44;;;;;;;5.43;4.72;;;14.50;99.90;;;;;;5037907;28;20402;-72
2023/05/24 00:51:11;;;;;;;5.22;4.53;;;14.50;99.90;;;;;;5038158;28;20482;-73
2023/05/24 00:53:38;;;;;;;5.47;4.97;;;14.50;99.90;;;;;;5038108;28;20021;-72
2023/05/24 00:56:05;;;;;;;6.40;4.72;;;14.50;99.90;;;;;;5038146;28;20025;-71
2023/05/24 00:58:31;;;;;;;6.03;4.93;;;14.50;99.90;;;;;;5037682;28;20097;-72
2023/05/24 01:01:01;;;;;;;4.93;4.40;;;14.50;99.90;;;;;;5036634;28;20028;-72
2023/05/24 01:03:28;;;;;;;6.10;5.03;;;14.50;99.90;;;;;;5037080;28;20021;-72
2023/05/24 01:06:02;;;;;;;5.90;4.82;;;14.40;99.90;;;;;;5037833;28;20018;-72
2023/05/24 01:08:46;;;;;;;7.55;4.78;;;14.40;99.90;;;;;;5037992;28;20028;-71
2023/05/24 01:11:16;;;;;;;9.75;5.30;;;14.40;99.90;;;;;;5027738;28;20043;-71
2023/05/24 01:14:13;;;;;;;7.53;4.55;;;14.40;99.90;;;;;;5037354;28;20542;-72
2023/05/24 01:17:02;;;;;;;6.28;5.30;;;14.40;99.90;;;;;;5037802;28;20021;-72
2023/05/24 01:20:00;;;;;;;7.43;5.00;;;14.50;99.90;;;;;;5028481;28;20053;-72
2023/05/24 01:22:51;;;;;;;6.82;5.40;;;14.50;99.90;;;;;;5037764;28;20029;-72
2023/05/24 01:25:25;;;;;;;6.15;4.20;;;14.60;99.90;;;;;;5037453;28;20029;-72
2023/05/24 01:27:51;;;;;;;5.57;4.95;;;14.70;99.90;;;;;;5037347;28;20056;-72
2023/05/24 01:30:17;;;;;;;6.10;4.85;;;14.80;99.90;;;;;;5037285;28;20026;-72
2023/05/24 01:32:43;;;;;;;6.72;5.15;;;14.90;99.90;;;;;;5037441;28;20037;-72
2023/05/24 01:35:09;;;;;;;8.27;5.03;;;15.00;99.90;;;;;;5037177;28;20022;-72
2023/05/24 01:37:35;;;;;;;5.63;4.63;;;15.10;99.90;;;;;;5036218;28;20025;-72
2023/05/24 01:40:01;;;;;;;6.28;4.93;;;15.10;99.90;;;;;;5035670;28;20367;-72
2023/05/24 01:42:34;;;;;;;7.80;5.38;;;15.10;99.90;;;;;;5037115;28;20555;-72
2023/05/24 01:45:28;;;;;;;6.60;4.65;;;15.20;99.90;;;;;;5037310;28;20101;-72
2023/05/24 01:48:00;;;;;;;5.50;5.00;;;15.20;99.90;;;;;;5037094;28;20056;-72
2023/05/24 01:50:39;;;;;;;7.03;4.97;;;15.30;99.90;;;;;;5037236;28;20029;-72
2023/05/24 01:53:11;;;;;;;6.97;5.25;;;15.30;99.90;;;;;;5037142;28;20484;-72
2023/05/24 01:55:38;;;;;;;6.40;4.95;;;15.30;99.90;;;;;;5035889;28;20026;-72
2023/05/24 01:58:05;;;;;;;6.05;4.93;;;15.30;99.90;;;;;;5036833;28;20021;-73
2023/05/24 02:00:33;;;;;;;5.22;4.40;;;15.30;99.90;;;;;;5036984;28;20033;-73
2023/05/24 02:03:01;;;;;;;6.00;4.57;;;15.40;99.90;;;;;;5035751;28;20092;-72
2023/05/24 02:05:27;;;;;;;8.43;5.15;;;15.40;99.90;;;;;;5037173;28;20100;-73
2023/05/24 02:07:53;;;;;;;5.65;4.78;;;15.40;99.90;;;;;;5036910;28;20029;-73
2023/05/24 02:10:18;;;;;;;6.07;4.82;;;15.40;99.90;;;;;;5036485;28;20037;-73
2023/05/24 02:12:44;;;;;;;5.88;5.00;;;15.40;99.90;;;;;;5035327;28;20056;-72
2023/05/24 02:15:13;;;;;;;7.38;4.30;;;15.50;99.90;;;;;;5036918;28;20025;-72
2023/05/24 02:17:39;;;;;;;7.70;5.20;;;15.50;99.90;;;;;;5026413;28;20021;-72
2023/05/24 02:20:05;;;;;;;7.00;4.80;;;15.40;99.90;;;;;;5036512;28;20137;-73
2023/05/24 02:22:31;;;;;;;7.25;5.45;;;15.50;99.90;;;;;;5033528;28;20021;-72
2023/05/24 02:24:57;;;;;;;6.97;5.22;;;15.40;99.90;;;;;;5036828;28;20029;-72
2023/05/24 02:27:22;;;;;;;7.30;4.90;;;15.40;99.90;;;;;;5036237;28;20104;-72
2023/05/24 02:29:48;;;;;;;10.50;5.63;;;15.40;99.90;;;;;;5035498;28;20095;-72
2023/05/24 02:32:13;;;;;;;6.90;5.28;;;15.30;99.90;;;;;;5036704;28;20026;-73
2023/05/24 02:34:39;;;;;;;9.25;6.15;;;15.30;99.90;;;;;;5036673;28;20030;-72
2023/05/24 02:37:05;;;;;;;8.88;5.25;;;15.40;99.90;;;;;;5036567;28;20093;-72
2023/05/24 02:39:30;;;;;;;8.20;5.03;;;15.40;99.90;;;;;;5035307;28;20029;-72
2023/05/24 02:41:57;;;;;;;7.50;5.57;;;15.40;99.90;;;;;;5036390;28;20073;-72
2023/05/24 02:44:22;;;;;;;8.93;5.82;;;15.40;99.90;;;;;;5036605;28;20035;-72
2023/05/24 02:46:48;;;;;;;5.90;5.30;;;15.40;99.90;;;;;;5036504;28;20026;-72
2023/05/24 02:49:14;;;;;;;8.27;5.68;;;15.50;99.90;;;;;;5036473;28;20096;-72
2023/05/24 02:51:39;;;;;;;8.30;5.50;;;15.50;99.90;;;;;;5036479;28;20679;-72
2023/05/24 02:54:05;;;;;;;11.77;5.85;;;15.50;99.90;;;;;;5036547;28;20490;-72
2023/05/24 02:56:31;;;;;;;7.90;5.78;;;15.40;99.90;;;;;;5036464;28;20028;-72
2023/05/24 02:58:57;;;;;;;8.13;6.00;;;15.40;99.90;;;;;;5036129;28;20025;-73
2023/05/24 03:01:23;;;;;;;7.60;5.65;;;15.50;99.90;;;;;;5036427;28;20021;-72
2023/05/24 03:03:48;;;;;;;7.47;5.55;;;15.50;99.90;;;;;;5036088;28;20053;-73
2023/05/24 03:06:14;;;;;;;6.50;5.30;;;15.50;99.90;;;;;;5034578;28;20047;-73
2023/05/24 03:08:40;;;;;;;8.20;5.55;;;15.60;99.90;;;;;;5035755;28;20026;-72
2023/05/24 03:11:06;;;;;;;8.13;5.57;;;15.60;99.90;;;;;;5025171;28;20017;-72
2023/05/24 03:13:32;;;;;;;6.95;5.38;;;15.60;99.90;;;;;;5034792;28;20535;-72
2023/05/24 03:15:57;;;;;;;7.22;5.07;;;15.60;99.90;;;;;;5036684;28;20022;-73
2023/05/24 03:18:23;;;;;;;8.05;5.45;;;15.60;99.90;;;;;;5035940;28;20393;-72
2023/05/24 03:20:49;;;;;;;8.13;5.32;;;15.60;99.90;;;;;;5036370;28;20072;-72
2023/05/24 03:23:15;;;;;;;8.18;5.43;;;15.60;99.90;;;;;;5036271;28;20502;-73
2023/05/24 03:25:41;;;;;;;11.20;5.40;;;15.60;99.90;;;;;;5037662;28;20488;-72
2023/05/24 03:28:07;;;;;;;5.68;4.97;;;15.60;99.90;;;;;;5038092;28;20064;-72
2023/05/24 03:30:32;;;;;;;8.82;5.78;;;15.60;99.90;;;;;;5040155;28;20535;-72
2023/05/24 03:32:58;;;;;;;9.77;5.22;;;15.60;99.90;;;;;;5039663;28;20444;-73
2023/05/24 03:35:24;;;;;;;7.18;6.00;;;15.50;99.90;;;;;;5039975;28;20021;-72
2023/05/24 03:37:50;;;;;;;8.05;5.78;;;15.50;99.90;;;;;;5039727;28;20033;-72
2023/05/24 03:40:15;;;;;;;8.25;6.10;;;15.50;99.90;;;;;;5039815;28;20028;-72
2023/05/24 03:42:41;;;;;;;6.07;5.25;;;15.50;99.90;;;;;;5039315;28;20037;-72
2023/05/24 03:45:07;;;;;;;7.68;5.70;;;15.50;99.90;;;;;;5039653;28;20100;-72
2023/05/24 03:47:33;;;;;;;6.30;5.32;;;15.50;99.90;;;;;;5039459;28;20052;-73
2023/05/24 03:49:59;;;;;;;8.48;5.97;;;15.50;99.90;;;;;;5039502;28;20084;-72
2023/05/24 03:52:24;;;;;;;9.70;5.28;;;15.50;99.90;;;;;;5039162;28;20025;-72
2023/05/24 03:54:50;;;;;;;6.72;5.55;;;15.50;99.90;;;;;;5039417;28;20502;-72
2023/05/24 03:57:16;;;;;;;6.68;5.82;;;15.40;99.90;;;;;;5037518;28;20022;-71
2023/05/24 03:59:42;;;;;;;9.05;5.68;;;15.40;99.90;;;;;;5039294;28;20108;-72
2023/05/24 04:02:08;;;;;;;6.53;5.78;;;15.40;99.90;;;;;;5038928;28;20033;-72
2023/05/24 04:04:33;;;;;;;13.43;6.50;;;15.40;99.90;;;;;;5039300;28;20021;-72
2023/05/24 04:06:59;;;;;;;7.47;5.60;;;15.40;99.90;;;;;;5038915;28;20037;-71
2023/05/24 04:09:25;;;;;;;9.73;6.72;;;15.30;99.90;;;;;;5033027;28;20034;-72
2023/05/24 04:11:50;;;;;;;7.13;5.53;;;15.30;99.90;;;;;;5032273;28;20033;-72
2023/05/24 04:14:16;;;;;;;7.55;6.13;;;15.40;99.90;;;;;;5037502;28;20028;-72
2023/05/24 04:16:43;;;;;;;12.98;6.50;;;15.40;99.90;;;;;;5038142;28;20020;-72
2023/05/24 04:19:09;;;;;;;9.35;6.63;;;15.40;99.90;;;;;;5038951;28;20065;-72
2023/05/24 04:21:36;;;;;;;7.03;5.40;;;15.30;99.90;;;;;;5037463;28;20029;-72
2023/05/24 04:24:03;;;;;;;6.25;5.13;;;15.30;99.90;;;;;;5039052;28;20022;-73
2023/05/24 04:26:30;;;;;;;7.82;6.10;;;15.30;99.90;;;;;;5038204;28;20022;-72
2023/05/24 04:28:56;;;;;;;7.28;6.03;;;15.30;99.90;;;;;;5038949;28;20017;-72
2023/05/24 04:31:22;;;;;;;10.80;6.40;;;15.30;99.90;;;;;;5038377;28;20025;-71
2023/05/24 04:33:48;;;;;;;8.13;5.93;;;15.40;99.90;;;;;;5038526;28;20109;-72
2023/05/24 04:36:16;;;;;;;10.48;6.32;;;15.40;99.90;;;;;;5038118;28;20026;-72
2023/05/24 04:38:44;;;;;;;9.77;6.60;;;15.30;99.90;;;;;;5036294;28;20022;-73
2023/05/24 04:41:10;;;;;;;7.68;6.05;;;15.40;99.90;;;;;;5038409;28;20013;-72
2023/05/24 04:43:35;;;;;;;9.25;5.70;;;15.40;99.90;;;;;;5038265;28;20032;-72
2023/05/24 04:46:01;;;;;;;11.23;6.22;;;15.40;99.90;;;;;;5036773;28;20037;-74
2023/05/24 04:48:27;;;;;;;7.68;6.38;;;15.40;99.90;;;;;;5028020;28;20030;-72
2023/05/24 04:50:55;;;;;;;10.70;6.47;;;15.40;99.90;;;;;;5033927;28;20058;-72
2023/05/24 04:53:21;;;;;;;8.80;6.55;;;15.40;99.90;;;;;;5036894;28;20021;-72
2023/05/24 04:55:48;;;;;;;7.78;6.53;;;15.50;99.90;;;;;;5038103;28;20036;-72
2023/05/24 04:58:14;;;;;;;8.57;6.65;;;15.50;99.90;;;;;;5037902;28;20096;-72
2023/05/24 05:00:40;;;;;;;10.68;6.50;;;15.50;99.90;;;;;;5036767;28;20028;-72
2023/05/24 05:03:06;;;;;;;7.85;6.65;;;15.50;99.90;;;;;;5037962;28;20025;-72
2023/05/24 05:05:32;;;;;;;8.55;6.43;;;15.50;99.90;;;;;;5037907;28;20052;-72
2023/05/24 05:07:57;;;;;;;8.48;5.78;;;15.50;99.90;;;;;;5037974;28;20556;-72
2023/05/24 05:10:23;;;;;;;9.60;6.50;;;15.60;99.90;;;;;;5026776;28;20031;-72
2023/05/24 05:12:49;;;;;;;11.15;6.72;;;15.60;99.90;;;;;;5037456;28;20057;-72
2023/05/24 05:15:15;;;;;;;10.68;6.43;;;15.70;99.90;;;;;;5035982;28;20103;-72
2023/05/24 05:17:40;;;;;;;8.52;6.75;;;15.80;99.90;;;;;;5037640;28;20018;-73
2023/05/24 05:20:06;;;;;;;11.57;7.60;;;15.80;99.90;;;;;;5037493;28;20099;-74
2023/05/24 05:22:32;;;;;;;8.82;7.65;;;15.80;99.90;;;;;;5037663;28;20025;-73
2023/05/24 05:24:59;;;;;;;9.70;6.85;;;15.90;99.90;;;;;;5037309;28;20044;-72
2023/05/24 05:27:25;;;;;;;8.32;6.97;;;15.90;99.90;;;;;;5037505;28;20105;-71
2023/05/24 05:29:50;;;;;;;12.13;7.20;;;15.90;99.90;;;;;;5037634;28;20026;-71
2023/05/24 05:32:16;;;;;;;9.23;7.13;;;16.00;99.90;;;;;;5037541;28;20032;-73
2023/05/24 05:34:42;;;;;;;9.38;7.80;;;16.00;99.90;;;;;;5037330;28;20029;-72
2023/05/24 05:37:07;;;;;;;9.73;7.28;;;16.10;99.90;;;;;;5037332;28;20021;-73
2023/05/24 05:39:33;;;;;;;9.05;6.47;;;16.10;99.90;;;;;;5037225;28;20029;-72
2023/05/24 05:42:01;;;;;;;11.73;7.85;;;16.10;99.90;;;;;;5036948;28;20497;-73
2023/05/24 05:44:26;;;;;;;11.40;7.93;;;16.20;99.90;;;;;;5035847;28;20033;-72
2023/05/24 05:46:52;;;;;;;10.02;8.00;;;16.20;99.90;;;;;;5037177;28;20032;-72
2023/05/24 05:49:18;;;;;;;9.10;7.68;;;16.10;99.90;;;;;;5036545;28;20104;-73
2023/05/24 05:51:44;;;;;;;12.27;8.68;;;16.10;99.90;;;;;;5036001;28;20025;-72
2023/05/24 05:54:14;;;;;;;10.18;7.88;;;16.20;99.90;;;;;;5035884;28;20039;-72
2023/05/24 05:56:44;;;;;;;10.88;7.70;;;16.20;99.90;;;;;;5037117;28;20084;-72
2023/05/24 05:59:19;;;;;;;10.88;7.75;;;16.20;99.90;;;;;;5037014;28;20024;-72
2023/05/24 06:01:46;;;;;;;16.48;8.38;;;16.30;99.90;;;;;;5037157;28;20389;-72
2023/05/24 06:04:12;;;;;;;8.48;7.38;;;16.40;99.90;;;;;;5036913;28;20017;-72
2023/05/24 06:06:38;;;;;;;10.23;8.00;;;16.40;99.90;;;;;;5037209;28;20501;-73
2023/05/24 06:09:04;;;;;;;9.10;7.28;;;16.60;99.90;;;;;;5033736;28;20030;-72
2023/05/24 06:11:30;;;;;;;10.02;8.65;;;16.60;99.90;;;;;;5021545;28;20028;-73
2023/05/24 06:13:56;;;;;;;12.45;7.80;;;16.60;99.90;;;;;;5030782;28;20029;-72
2023/05/24 06:16:21;;;;;;;10.40;7.07;;;16.70;99.90;;;;;;5027874;28;20152;-72
2023/05/24 06:18:47;;;;;;;12.45;8.25;;;16.70;99.90;;;;;;5028777;28;20021;-73
2023/05/24 06:21:15;;;;;;;11.18;8.43;;;16.70;99.90;;;;;;5021623;28;20105;-73
2023/05/24 06:23:41;;;;;;;12.00;8.60;;;16.70;99.90;;;;;;5028618;28;20026;-72
2023/05/24 06:26:11;;;;;;;12.02;7.93;;;16.80;99.90;;;;;;5036275;28;20013;-72
2023/05/24 06:28:36;;;;;;;10.00;6.82;;;16.80;99.90;;;;;;5035857;28;20397;-72
2023/05/24 06:31:03;;;;;;;10.82;8.20;;;16.80;99.90;;;;;;5036709;28;20018;-73
2023/05/24 06:33:30;;;;;;;10.65;7.82;;;16.80;99.90;;;;;;5035682;28;20029;-71
2023/05/24 06:35:56;;;;;;;12.55;7.93;;;16.80;99.90;;;;;;5036611;28;20021;-72
2023/05/24 06:38:21;;;;;;;9.80;7.55;;;16.80;99.90;;;;;;5035758;28;20036;-71
2023/05/24 06:40:47;;;;;;;9.75;7.55;;;16.80;99.90;;;;;;5036637;28;20029;-71
2023/05/24 06:43:13;;;;;;;10.93;8.10;;;16.80;99.90;;;;;;5036276;28;20021;-71
2023/05/24 06:45:38;;;;;;;12.40;8.52;;;16.90;99.90;;;;;;5035345;28;20057;-71
2023/05/24 06:48:04;;;;;;;10.43;7.78;;;16.90;99.90;;;;;;5036242;28;20022;-72
2023/05/24 06:50:30;;;;;;;14.43;7.53;;;16.90;99.90;;;;;;5023293;28;20549;-71
2023/05/24 06:52:56;;;;;;;13.27;8.40;;;16.90;99.90;;;;;;5033030;28;20029;-71
2023/05/24 06:55:22;;;;;;;13.00;8.48;;;16.90;99.90;;;;;;5034885;28;20024;-70
2023/05/24 06:57:47;;;;;;;9.93;7.32;;;17.00;99.90;;;;;;5031426;28;20029;-71
2023/05/24 07:00:13;;;;;;;9.75;8.27;;;17.00;99.90;;;;;;5034997;28;20033;-71
2023/05/24 07:02:39;;;;;;;8.75;7.35;;;17.10;99.90;;;;;;5036263;28;20034;-71
2023/05/24 07:05:10;;;;;;;11.40;7.63;;;17.20;99.90;;;;;;5038329;28;20561;-71
2023/05/24 07:07:37;;;;;;;11.43;7.57;;;17.30;99.90;;;;;;5036036;28;20112;-71
2023/05/24 07:10:03;;;;;;;10.13;6.97;;;17.40;99.90;;;;;;5037650;28;20055;-71
2023/05/24 07:12:31;;;;;;;9.15;7.97;;;17.50;99.90;;;;;;5037728;28;20049;-71
2023/05/24 07:14:56;;;;;;;9.52;7.07;;;17.60;99.90;;;;;;5038244;28;20013;-71
2023/05/24 07:17:22;;;;;;;10.07;6.95;;;17.60;99.90;;;;;;5036430;28;20109;-71
2023/05/24 07:19:48;;;;;;;12.15;6.90;;;17.50;99.90;;;;;;5035051;28;20153;-71
2023/05/24 07:22:13;;;;;;;10.25;7.68;;;17.60;99.90;;;;;;5038429;28;20454;-71
2023/05/24 07:24:39;;;;;;;12.23;7.07;;;17.50;99.90;;;;;;5037279;28;20028;-71
2023/05/24 07:27:04;;;;;;;8.85;6.88;;;17.60;99.90;;;;;;5036145;28;20109;-71
2023/05/24 07:29:30;;;;;;;8.98;7.43;;;17.60;99.90;;;;;;5032945;28;20060;-71
2023/05/24 07:31:57;;;;;;;11.82;7.30;;;17.70;99.90;;;;;;5035941;28;20080;-71
2023/05/24 07:34:26;;;;;;;9.05;6.95;;;17.90;99.90;;;;;;5034252;28;20041;-70
2023/05/24 07:36:52;;;;;;;9.90;7.10;;;17.90;99.90;;;;;;5028665;28;20027;-71
2023/05/24 07:39:17;;;;;;;10.68;6.68;;;18.00;99.90;;;;;;5030746;28;20028;-71
2023/05/24 07:41:43;;;;;;;9.55;7.32;;;18.00;99.90;;;;;;5033289;28;20021;-71
2023/05/24 07:44:09;;;;;;;9.23;6.85;;;18.00;99.90;;;;;;5035112;28;20090;-70
2023/05/24 07:46:35;;;;;;;9.52;8.02;;;18.20;99.90;;;;;;5025347;28;20030;-70
2023/05/24 07:49:00;;;;;;;8.85;6.93;;;18.20;99.90;;;;;;5034765;28;20029;-70
2023/05/24 07:51:26;;;;;;;10.50;8.02;;;18.30;99.90;;;;;;5034219;28;20037;-71
2023/05/24 07:53:52;;;;;;;8.75;7.43;;;18.30;99.90;;;;;;5037603;28;20033;-71
2023/05/24 07:56:17;;;;;;;11.00;7.70;;;18.50;99.90;;;;;;5036458;28;20032;-70
2023/05/24 07:58:45;;;;;;;11.40;7.00;;;18.50;99.90;;;;;;5037710;28;20053;-70
2023/05/24 08:01:12;;;;;;;10.77;7.63;;;18.50;99.90;;;;;;5037321;28;20053;-71
2023/05/24 08:03:38;;;;;;;9.90;7.50;;;18.50;99.90;;;;;;5034927;28;20108;-71
2023/05/24 08:06:04;;;;;;;9.00;7.60;;;18.70;99.90;;;;;;5033987;28;20494;-71
2023/05/24 08:08:30;;;;;;;9.50;7.28;;;18.70;99.90;;;;;;5037243;28;20021;-70
2023/05/24 08:10:56;;;;;;;8.85;7.15;;;18.70;99.90;;;;;;5034244;28;20077;-70
2023/05/24 08:13:22;;;;;;;9.93;7.63;;;18.60;99.90;;;;;;5036829;28;20068;-70
2023/05/24 08:15:47;;;;;;;10.85;7.63;;;18.60;99.90;;;;;;5033906;28;20021;-70
2023/05/24 08:18:13;;;;;;;9.85;7.15;;;18.50;99.90;;;;;;5033920;28;20025;-71
2023/05/24 08:20:39;;;;;;;13.57;7.65;;;18.50;99.90;;;;;;5032619;28;20509;-71
2023/05/24 08:23:05;;;;;;;10.90;7.47;;;18.50;99.90;;;;;;5035858;28;20461;-71
2023/05/24 08:25:31;;;;;;;11.95;8.13;;;18.50;99.90;;;;;;5037231;28;20029;-70
2023/05/24 08:27:57;;;;;;;8.48;7.32;;;18.70;99.90;;;;;;5037103;28;20021;-71
2023/05/24 08:30:23;;;;;;;10.43;7.80;;;18.80;99.90;;;;;;5034482;28;20027;-71
2023/05/24 08:32:49;;;;;;;11.15;7.95;;;19.00;99.90;;;;;;5033305;28;20029;-70
2023/05/24 08:35:15;;;;;;;9.95;8.32;;;19.00;99.90;;;;;;5033515;28;20021;-70
2023/05/24 08:37:41;;;;;;;9.43;7.75;;;19.00;99.90;;;;;;5037027;28;20029;-70
2023/05/24 08:40:10;;;;;;;9.88;7.85;;;18.90;99.90;;;;;;5036260;28;20029;-72
2023/05/24 08:42:38;;;;;;;10.55;8.07;;;18.80;99.90;;;;;;5033984;28;20021;-71
2023/05/24 08:45:14;;;;;;;9.88;7.32;;;18.80;99.90;;;;;;5028349;28;20020;-71
2023/05/24 08:47:41;;;;;;;11.00;7.22;;;18.90;99.90;;;;;;5037901;28;20072;-71
2023/05/24 08:50:07;;;;;;;9.90;7.43;;;18.90;99.90;;;;;;5037810;28;20108;-70
2023/05/24 08:52:34;;;;;;;9.95;7.60;;;18.90;99.90;;;;;;5037071;28;20021;-71
2023/05/24 08:55:04;;;;;;;9.00;7.00;;;19.00;99.90;;;;;;5037657;28;20022;-72
2023/05/24 08:57:33;;;;;;;9.25;7.40;;;19.20;99.90;;;;;;5037414;28;20025;-73
2023/05/24 08:59:59;;;;;;;13.13;7.85;;;19.30;99.90;;;;;;5036557;28;20116;-72
2023/05/24 09:02:25;;;;;;;10.93;6.78;;;19.30;99.90;;;;;;5037659;28;20068;-71
2023/05/24 09:04:52;;;;;;;10.50;8.05;;;19.40;99.90;;;;;;5034837;28;20429;-71
2023/05/24 09:07:20;;;;;;;12.15;7.90;;;19.30;99.90;;;;;;5037505;28;20104;-72
2023/05/24 09:09:49;;;;;;;12.38;7.35;;;19.40;99.90;;;;;;5035407;28;20034;-74
2023/05/24 09:12:17;;;;;;;8.80;7.28;;;19.40;99.90;;;;;;5035913;28;20033;-70
2023/05/24 09:14:46;;;;;;;9.40;7.10;;;19.50;99.90;;;;;;5037602;28;20014;-71
2023/05/24 09:17:14;;;;;;;9.32;6.85;;;19.40;99.90;;;;;;5037018;28;20045;-71
2023/05/24 09:19:44;;;;;;;9.80;7.30;;;19.60;99.90;;;;;;5031646;28;20041;-70
2023/05/24 09:22:13;;;;;;;10.02;7.20;;;19.80;99.90;;;;;;5032460;28;20029;-70
2023/05/24 09:24:42;;;;;;;10.55;7.28;;;20.00;99.90;;;;;;5033593;28;20026;-71
2023/05/24 09:27:09;;;;;;;10.15;7.55;;;20.00;99.90;;;;;;5035823;28;20033;-70
2023/05/24 09:29:36;;;;;;;10.82;7.13;;;20.10;99.90;;;;;;5036424;28;20538;-71
2023/05/24 09:32:03;;;;;;;8.93;7.25;;;20.30;99.90;;;;;;5029087;28;20022;-71
2023/05/24 09:34:37;;;;;;;9.00;7.03;;;20.40;99.90;;;;;;5030220;28;20021;-70
2023/05/24 09:37:03;;;;;;;10.50;7.75;;;20.50;99.90;;;;;;5036389;28;20025;-70
2023/05/24 09:39:28;;;;;;;10.40;6.93;;;20.60;99.90;;;;;;5034017;28;20018;-70
2023/05/24 09:41:55;;;;;;;9.00;7.03;;;20.60;99.90;;;;;;5035834;28;20025;-70
2023/05/24 09:44:28;;;;;;;8.93;6.65;;;21.00;99.90;;;;;;5033243;28;20588;-70
2023/05/24 09:47:00;;;;;;;8.32;6.05;;;21.10;99.90;;;;;;5034147;28;20033;-71
2023/05/24 09:49:25;;;;;;;8.30;6.68;;;21.20;99.90;;;;;;5032337;28;20029;-72
2023/05/24 09:51:51;;;;;;;8.23;6.72;;;21.00;99.90;;;;;;5033789;28;20481;-71
2023/05/24 09:54:17;;;;;;;9.63;6.90;;;21.00;99.90;;;;;;5024241;28;20032;-71
2023/05/24 09:56:45;;;;;;;8.73;6.25;;;20.70;99.90;;;;;;5033001;28;20025;-71
2023/05/24 09:59:11;;;;;;;7.72;6.00;;;20.40;99.90;;;;;;5031656;28;20038;-71
2023/05/24 10:01:37;;;;;;;9.40;6.72;;;20.20;99.90;;;;;;5036022;28;20930;-71
2023/05/24 10:04:05;;;;;;;9.65;7.32;;;19.90;99.90;;;;;;5036482;28;20019;-70
2023/05/24 10:06:36;;;;;;;9.90;7.07;;;19.80;99.90;;;;;;5036140;28;20108;-71
2023/05/24 10:09:04;;;;;;;;;;;19.80;99.90;;;;;;5033277;28;20064;-70
2023/05/24 10:11:32;;;;;;;10.32;7.95;;;19.80;99.90;;;;;;5031670;28;20393;-71
2023/05/24 10:13:58;;;;;;;11.48;7.80;;;19.80;99.90;;;;;;5033410;28;20029;-71
2023/05/24 10:16:24;;;;;;;13.73;8.25;;;19.90;99.90;;;;;;5032010;28;20026;-71
2023/05/24 10:18:50;;;;;;;8.57;6.78;;;19.90;99.90;;;;;;5034602;28;20029;-72
2023/05/24 10:21:18;;;;;;;10.05;7.10;;;19.90;99.90;;;;;;5029550;28;20022;-72
2023/05/24 10:23:50;;;;;;;13.18;7.82;;;19.70;99.90;;;;;;5030671;28;20091;-72
2023/05/24 10:26:16;;;;;;;10.23;7.47;;;19.70;99.90;;;;;;5029181;28;20105;-72
2023/05/24 10:28:51;;;;;;;10.77;7.32;;;19.80;99.90;;;;;;5023632;28;20025;-72
2023/05/24 10:31:26;;;;;;;10.52;6.70;;;19.90;99.90;;;;;;5030707;28;20565;-73
2023/05/24 10:33:52;;;;;;;10.90;7.32;;;20.20;99.90;;;;;;5036131;28;20017;-72
2023/05/24 10:36:18;;;;;;;10.05;6.65;;;20.40;99.90;;;;;;5034319;28;20409;-72
2023/05/24 10:38:47;;;;;;;9.95;6.47;;;20.80;99.90;;;;;;5031830;28;20104;-72
2023/05/24 10:41:13;;;;;;;7.88;6.35;;;21.00;99.90;;;;;;5034765;28;20032;-72
2023/05/24 10:43:39;;;;;;;8.40;5.70;;;21.30;99.90;;;;;;5027850;28;20109;-72
2023/05/24 10:46:09;;;;;;;9.38;6.38;;;21.50;99.90;;;;;;5028762;28;20018;-72
2023/05/24 10:48:36;;;;;;;12.07;5.53;;;21.50;99.90;;;;;;5040395;28;20014;-73
2023/05/24 10:51:35;;;;;;;9.18;6.47;;;21.40;99.90;;;;;;5039157;28;20021;-72
2023/05/24 10:54:15;;;;;;;7.35;5.88;;;21.10;99.90;;;;;;5033647;28;20083;-72
2023/05/24 10:56:46;;;;;;;9.10;6.25;;;20.60;99.90;;;;;;5040048;28;20048;-72
2023/05/24 10:59:36;;;;;;;9.63;6.90;;;20.50;99.90;;;;;;5038930;28;20053;-72
2023/05/24 11:02:13;;;;;;;14.00;7.23;;;20.40;99.90;;;;;;5028686;28;20056;-72
2023/05/24 11:04:44;;;;;;;9.68;7.05;;;20.30;99.90;;;;;;5038943;28;20026;-72
2023/05/24 11:07:13;;;;;;;10.15;6.97;;;20.50;99.90;;;;;;5040126;28;20022;-71
2023/05/24 11:09:45;;;;;;;9.20;6.95;;;20.60;99.90;;;;;;5031919;28;20029;-72
2023/05/24 11:12:15;;;;;;;9.82;7.35;;;20.70;99.90;;;;;;5027803;28;20025;-73
2023/05/24 11:14:46;;;;;;;8.88;7.78;;;20.90;99.90;;;;;;5030647;28;20063;-72
2023/05/24 11:17:11;;;;;;;10.80;6.50;;;21.10;99.90;;;;;;5029605;28;20057;-72
2023/05/24 11:19:45;;;;;;;9.20;6.25;;;21.30;99.90;;;;;;5038761;28;20060;-72
2023/05/24 11:22:13;;;;;;;9.88;7.13;;;21.60;99.90;;;;;;5045267;28;20087;-72
2023/05/24 11:24:40;;;;;;;8.32;5.35;;;21.70;99.90;;;;;;5029368;28;20398;-73
2023/05/24 11:27:06;;;;;;;9.55;7.32;;;21.80;99.90;;;;;;5039435;28;20049;-72
2023/05/24 11:29:39;;;;;;;8.73;6.85;;;21.70;99.90;;;;;;5033098;28;20556;-72
2023/05/24 11:32:05;;;;;;;13.13;8.13;;;21.50;99.90;;;;;;5027293;28;20026;-72
2023/05/24 11:34:31;;;;;;;9.13;6.32;;;21.60;99.90;;;;;;5026990;28;20049;-72
2023/05/24 11:36:59;;;;;;;10.32;6.45;;;21.60;99.90;;;;;;5034941;28;20022;-72
2023/05/24 11:39:31;;;;;;;9.90;6.55;;;21.80;99.90;;;;;;5029298;28;20024;-72
2023/05/24 11:41:58;;;;;;;7.93;5.93;;;22.30;99.90;;;;;;5032389;28;20021;-71
2023/05/24 11:44:26;;;;;;;10.35;6.43;;;22.20;99.90;;;;;;5037544;28;20038;-72
2023/05/24 11:47:02;;;;;;;10.90;6.85;;;22.20;99.90;;;;;;5038490;28;20026;-71
2023/05/24 11:49:28;;;;;;;10.52;6.80;;;22.10;99.90;;;;;;5028708;28;20064;-72
2023/05/24 11:51:55;;;;;;;9.68;6.60;;;22.20;99.90;;;;;;5038585;28;20026;-72
2023/05/24 11:54:22;;;;;;;8.90;7.63;;;22.20;99.90;;;;;;5039328;28;20022;-72
2023/05/24 11:56:47;;;;;;;7.25;5.70;;;22.20;99.90;;;;;;5038937;28;20056;-71
2023/05/24 11:59:18;;;;;;;7.47;5.78;;;22.00;99.90;;;;;;5038881;28;20018;-71
2023/05/24 12:01:44;;;;;;;8.77;6.88;;;21.90;99.90;;;;;;5039418;28;20486;-71
2023/05/24 12:04:10;;;;;;;14.40;7.35;;;22.10;99.90;;;;;;5038825;28;20044;-71
2023/05/24 12:06:43;;;;;;;11.02;7.00;;;22.00;99.90;;;;;;5036307;28;20034;-72
2023/05/24 12:09:12;;;;;;;8.68;6.18;;;22.10;99.90;;;;;;5029014;28;20041;-72
2023/05/24 12:11:39;;;;;;;8.93;6.65;;;22.30;99.90;;;;;;5021742;28;20028;-70
2023/05/24 12:14:06;;;;;;;11.13;6.70;;;22.20;99.90;;;;;;5027579;28;20017;-71
2023/05/24 12:16:32;;;;;;;10.93;6.90;;;22.10;99.90;;;;;;5038956;28;20017;-71
2023/05/24 12:18:58;;;;;;;11.05;7.00;;;22.10;99.90;;;;;;5038458;28;20050;-71
2023/05/24 12:21:25;;;;;;;9.75;7.85;;;22.10;99.90;;;;;;5029740;28;20026;-71
2023/05/24 12:23:50;;;;;;;12.15;7.47;;;22.10;99.90;;;;;;5034344;28;20033;-71
2023/05/24 12:26:21;;;;;;;10.65;7.18;;;21.80;99.90;;;;;;5033525;28;20014;-71
2023/05/24 12:28:51;;;;;;;12.63;8.60;;;21.80;99.90;;;;;;5038846;28;20026;-72
2023/05/24 12:31:18;;;;;;;11.85;8.18;;;21.60;99.90;;;;;;5038848;28;20108;-71
2023/05/24 12:33:43;;;;;;;11.98;8.23;;;21.60;99.90;;;;;;5038699;28;20030;-71
2023/05/24 12:36:09;;;;;;;10.73;7.75;;;21.70;99.90;;;;;;5038560;28;20020;-71
2023/05/24 12:38:35;;;;;;;13.32;8.13;;;21.70;99.90;;;;;;5037364;28;20100;-70
2023/05/24 12:41:00;;;;;;;9.77;8.50;;;21.50;99.90;;;;;;5038299;28;20017;-70
2023/05/24 12:43:26;;;;;;;14.00;9.35;;;21.40;99.90;;;;;;5037237;28;20037;-71
2023/05/24 12:45:52;;;;;;;11.35;8.52;;;21.40;99.90;;;;;;5038245;28;20657;-71